Airfield :
LOGIN :

Register | Disclaimer

   EN    FR    IT 

 










Legend :    VFR   Marginal VFR   IFR   Intensive IFR   Very Intensive IFR
Visi :
Ceiling :
>= 8 km
>= 3000ft
5 to 8 km
1000 to 3000 ft
1500m to 5 km
500 to 1000 ft
800 to 1500m
200 to 500 ft
< 800m
< 200 ft
Symbols :   Thunderstorms  Fog  Heavy snow  Heavy precipitations  Wind > 20 kt
SIGMETs :     Misc.  Thunderstorms  Icing  Turbulence  Mountain Waves  Volcanic Ashes






- Airport Elevation : 49 ft
- IATA code : SEN


EGMC - Southend

CURRENT METAR :
  • 232220Z 22008KT 9999 SCT023 08/07 Q1024

EXPIRED METARs :
  • 232150Z 20007KT 9999 BKN020 08/07 Q1024
  • 232120Z 19007KT 9999 FEW020 SCT024 BKN028 09/07 Q1024
  • 232050Z 19010KT 9999 FEW026 BKN030 09/07 Q1024
  • 232020Z 19011KT 9999 SCT030 BKN032 09/07 Q1024
  • 231950Z 19010KT 9999 SCT029 BKN033 09/07 Q1025
  • 231920Z 18009KT 9999 FEW032 BKN038 08/06 Q1025

TAF TAF EGMC
Valid from the 23 at 21:00 until the 24 at 06:00 UTC


231958Z 2321/2406 20006KT 9999 SCT040
PROB30
TEMPO 2403/2406 7000 -RA BKN014



MET'MAP, your aeronautical weather chart ! - Copyright ORBIFLY December 2007 - Disclaimer

ORBIFLY MET'MAP TEAM :

Programming & Development : Alexandra Zaïnal
Concept & original design : Baudouin d'Aumeries
Assistance for programming : Marc-Olivier Méhu
Technical & hardware support : Manuel Goepfert

Contact : metmap@orbifly.com




SOURCES & CREDITS :

   NOAA